Izumi, Japan
Current Conditions -  °F | °C
As of 10:30 AM on Sunday 21 Dec 2014 (Local Time) from RJBB Reporting Station
Few Clouds Few Clouds  
Wind Chill: 43°   Ceiling: Unl
Heat Index: 48°   Visibility: 6mi
Dew Point: 32°   Wind: 13mph
Humidity: 54%   Direction: 290°WNW
Pressure: 30.03"   Gusts: NA
Location:  34.48°N, 135.42°E
Report Text: RJBB 210130Z 29011KT 9999 FEW025 09/00 Q1017 NOSIG
Loading
Personal Weather Stations






























Interactive Weather Map New forecast layout! Learn more

10-Day Weather Forecast

Advertisements
Track Severe Weather on mobile